createdAt,value
2023-01-29T00:00:15.781Z,76.03
2023-01-29T00:02:44.048Z,76.32
2023-01-29T00:05:26.885Z,76.17
2023-01-29T00:07:59.007Z,76.49
2023-01-29T00:10:28.504Z,76.32
2023-01-29T00:12:56.466Z,76.90
2023-01-29T00:15:24.858Z,76.12
2023-01-29T00:17:53.026Z,76.28
2023-01-29T00:20:21.327Z,76.18
2023-01-29T00:22:49.536Z,76.11
2023-01-29T00:25:17.822Z,75.95
2023-01-29T00:27:47.268Z,75.65
2023-01-29T00:30:19.395Z,76.06
2023-01-29T00:32:48.237Z,76.23
2023-01-29T00:35:16.394Z,76.39
2023-01-29T00:37:44.690Z,77.30
2023-01-29T00:40:13.762Z,77.46
2023-01-29T00:42:59.150Z,77.25
2023-01-29T00:45:28.777Z,77.39
2023-01-29T00:47:57.241Z,77.09
2023-01-29T00:50:25.629Z,77.59
2023-01-29T00:52:54.735Z,77.58
2023-01-29T00:55:23.102Z,77.81
2023-01-29T00:57:51.463Z,77.91
2023-01-29T01:00:20.900Z,78.17
2023-01-29T01:03:07.452Z,78.24
2023-01-29T01:05:36.763Z,78.08
2023-01-29T01:08:25.473Z,78.07
2023-01-29T01:11:00.660Z,78.46
2023-01-29T01:13:29.000Z,78.03
2023-01-29T01:15:57.073Z,78.37
2023-01-29T01:18:26.570Z,78.62
2023-01-29T01:20:58.947Z,78.48
2023-01-29T01:23:27.972Z,78.64
2023-01-29T01:25:56.248Z,78.53
2023-01-29T01:28:24.363Z,77.94
2023-01-29T01:30:52.555Z,78.33
2023-01-29T01:33:20.839Z,78.05
2023-01-29T01:35:50.318Z,77.81
2023-01-29T01:38:18.115Z,78.52
2023-01-29T01:40:47.718Z,78.33
2023-01-29T01:43:15.702Z,78.45
2023-01-29T01:45:46.565Z,78.61
2023-01-29T01:48:20.543Z,78.35
2023-01-29T01:50:54.740Z,78.60
2023-01-29T01:53:30.519Z,78.47
2023-01-29T01:56:04.711Z,78.17
2023-01-29T01:58:39.641Z,78.16
2023-01-29T02:01:10.868Z,78.36
2023-01-29T02:04:13.159Z,78.50
2023-01-29T02:07:01.597Z,78.34
2023-01-29T02:09:37.881Z,78.60
2023-01-29T02:12:10.098Z,78.55
2023-01-29T02:14:41.294Z,78.52
2023-01-29T02:17:12.861Z,78.46
2023-01-29T02:19:54.176Z,78.68
2023-01-29T02:22:59.327Z,78.85
2023-01-29T02:26:20.850Z,78.54
2023-01-29T02:29:19.811Z,78.92
2023-01-29T02:32:09.767Z,78.96
2023-01-29T02:35:12.511Z,79.02
2023-01-29T02:37:52.403Z,79.13
2023-01-29T02:40:31.434Z,79.12
2023-01-29T02:43:16.014Z,79.47
2023-01-29T02:45:54.453Z,79.45
2023-01-29T02:48:27.271Z,79.38
2023-01-29T02:51:03.335Z,79.18
2023-01-29T02:53:41.624Z,79.45
2023-01-29T02:56:17.349Z,79.31
2023-01-29T02:58:54.171Z,79.35
2023-01-29T03:01:31.266Z,79.35
2023-01-29T03:04:05.635Z,79.62
2023-01-29T03:06:39.561Z,79.64
2023-01-29T03:09:17.128Z,79.56
2023-01-29T03:11:53.317Z,79.64
2023-01-29T03:14:51.461Z,79.77
2023-01-29T03:17:25.336Z,79.61
2023-01-29T03:19:53.627Z,79.87
2023-01-29T03:22:25.202Z,80.16
2023-01-29T03:25:16.857Z,79.76
2023-01-29T03:28:08.317Z,79.67
2023-01-29T03:31:01.571Z,80.03
2023-01-29T03:33:40.220Z,79.99
2023-01-29T03:36:17.608Z,80.34
2023-01-29T03:38:46.797Z,80.04
2023-01-29T03:41:26.960Z,80.11
2023-01-29T03:44:08.245Z,80.30
2023-01-29T03:46:46.455Z,81.10
2023-01-29T03:49:29.690Z,82.15
2023-01-29T03:52:05.481Z,83.08
2023-01-29T03:54:46.864Z,83.62
2023-01-29T03:57:25.398Z,84.15
2023-01-29T04:00:06.433Z,84.12
2023-01-29T04:02:47.802Z,84.70
2023-01-29T04:05:24.001Z,84.58
2023-01-29T04:08:08.673Z,85.54
2023-01-29T04:10:42.436Z,85.79
2023-01-29T04:13:15.350Z,86.44
2023-01-29T04:15:51.496Z,86.76
2023-01-29T04:18:19.563Z,86.84
2023-01-29T04:20:49.588Z,87.29
2023-01-29T04:23:24.383Z,87.20
2023-01-29T04:26:10.527Z,87.51
2023-01-29T04:29:00.222Z,87.47
2023-01-29T04:31:35.608Z,88.05
2023-01-29T04:34:20.335Z,88.58
2023-01-29T04:37:07.666Z,88.64
2023-01-29T04:39:50.060Z,88.96
2023-01-29T04:42:32.495Z,89.33
2023-01-29T04:45:13.054Z,89.50
2023-01-29T04:47:58.705Z,89.80
2023-01-29T04:50:36.326Z,89.75
2023-01-29T04:53:17.590Z,89.60
2023-01-29T04:55:52.863Z,89.28
2023-01-29T04:58:31.367Z,89.36
2023-01-29T05:01:01.055Z,89.51
2023-01-29T05:03:32.507Z,89.66
2023-01-29T05:06:03.608Z,89.71
2023-01-29T05:08:35.003Z,89.67
2023-01-29T05:11:03.186Z,89.14
2023-01-29T05:13:35.644Z,89.12
2023-01-29T05:16:11.029Z,89.30
2023-01-29T05:18:39.211Z,89.19
2023-01-29T05:21:11.075Z,88.76
2023-01-29T05:23:53.044Z,88.92
2023-01-29T05:26:40.197Z,88.86
2023-01-29T05:29:08.379Z,88.42
2023-01-29T05:31:36.424Z,88.21
2023-01-29T05:34:04.459Z,88.68
2023-01-29T05:36:32.457Z,88.44
2023-01-29T05:39:01.823Z,88.82
2023-01-29T05:41:29.875Z,88.56
2023-01-29T05:43:58.092Z,88.53
2023-01-29T05:46:26.478Z,88.67
2023-01-29T05:48:54.886Z,88.41
2023-01-29T05:51:23.052Z,88.39
2023-01-29T05:53:51.071Z,88.07
2023-01-29T05:56:20.543Z,88.22
2023-01-29T05:58:48.610Z,88.08
2023-01-29T06:01:20.777Z,87.95
2023-01-29T06:03:49.933Z,87.69
2023-01-29T06:06:18.819Z,88.17
2023-01-29T06:08:47.406Z,87.87
2023-01-29T06:11:18.147Z,88.13
2023-01-29T06:13:47.929Z,88.03
2023-01-29T06:16:17.907Z,88.22
2023-01-29T06:18:45.955Z,88.61
2023-01-29T06:21:15.459Z,88.52
2023-01-29T06:23:43.564Z,88.27
2023-01-29T06:26:14.897Z,88.90
2023-01-29T06:28:43.845Z,88.88
2023-01-29T06:31:33.145Z,88.76
2023-01-29T06:34:01.438Z,88.54
2023-01-29T06:36:32.184Z,88.45
2023-01-29T06:39:00.443Z,88.65
2023-01-29T06:41:28.622Z,89.24
2023-01-29T06:43:59.548Z,89.45
2023-01-29T06:46:31.830Z,88.99
2023-01-29T06:49:01.407Z,89.10
2023-01-29T06:51:29.518Z,89.63
2023-01-29T06:54:00.550Z,89.32
2023-01-29T06:56:28.799Z,89.45
2023-01-29T06:59:01.171Z,89.84
2023-01-29T07:01:36.219Z,89.41
2023-01-29T07:04:07.352Z,89.89
2023-01-29T07:06:35.444Z,89.39
2023-01-29T07:09:03.915Z,89.35
2023-01-29T07:11:37.990Z,89.89
2023-01-29T07:14:06.433Z,89.36
2023-01-29T07:16:35.801Z,89.19
2023-01-29T07:19:05.124Z,89.34
2023-01-29T07:21:33.186Z,89.30
2023-01-29T07:24:10.268Z,88.80
2023-01-29T07:26:38.419Z,89.11
2023-01-29T07:29:06.531Z,89.62
2023-01-29T07:31:40.903Z,89.32
2023-01-29T07:34:08.921Z,89.25
2023-01-29T07:36:39.635Z,89.26
2023-01-29T07:39:07.627Z,89.34
2023-01-29T07:41:35.651Z,89.02
2023-01-29T07:44:03.647Z,89.03
2023-01-29T07:46:31.655Z,89.51
2023-01-29T07:49:05.054Z,90.23
2023-01-29T07:51:33.126Z,90.23
2023-01-29T07:54:10.143Z,89.66
2023-01-29T07:56:38.208Z,90.14
2023-01-29T07:59:06.235Z,90.39
2023-01-29T08:01:37.075Z,90.45
2023-01-29T08:04:09.101Z,90.29
2023-01-29T08:06:56.170Z,90.60
2023-01-29T08:09:24.280Z,90.25
2023-01-29T08:11:55.379Z,90.33
2023-01-29T08:14:27.115Z,90.84
2023-01-29T08:16:57.824Z,91.19
2023-01-29T08:19:30.219Z,90.68
2023-01-29T08:22:29.980Z,90.72
2023-01-29T08:25:39.738Z,91.19
2023-01-29T08:28:11.797Z,90.96
2023-01-29T08:30:44.100Z,91.28
2023-01-29T08:33:16.206Z,90.87
2023-01-29T08:35:50.833Z,90.88
2023-01-29T08:38:20.849Z,90.67
2023-01-29T08:40:55.011Z,90.33
2023-01-29T08:43:23.075Z,90.40
2023-01-29T08:45:51.138Z,89.94
2023-01-29T08:48:19.125Z,90.45
2023-01-29T08:50:51.072Z,90.45
2023-01-29T08:53:24.320Z,90.32
2023-01-29T08:55:52.893Z,90.22
2023-01-29T08:58:21.350Z,90.13
2023-01-29T09:00:49.424Z,90.33
2023-01-29T09:03:17.448Z,90.27
2023-01-29T09:05:46.691Z,90.20
2023-01-29T09:08:17.704Z,90.05
2023-01-29T09:10:45.928Z,89.53
2023-01-29T09:13:13.874Z,89.75
2023-01-29T09:15:41.808Z,89.33
2023-01-29T09:18:09.854Z,89.14
2023-01-29T09:20:38.842Z,89.14
2023-01-29T09:23:07.851Z,89.20
2023-01-29T09:25:38.364Z,88.81
2023-01-29T09:28:07.277Z,88.44
2023-01-29T09:30:37.819Z,88.32
2023-01-29T09:33:06.852Z,88.39
2023-01-29T09:35:35.636Z,88.89
2023-01-29T09:38:03.853Z,87.99
2023-01-29T09:40:43.031Z,88.28
2023-01-29T09:43:18.239Z,88.02
2023-01-29T09:45:57.205Z,87.68
2023-01-29T09:48:32.961Z,87.62
2023-01-29T09:51:13.901Z,87.51
2023-01-29T09:53:53.221Z,86.64
2023-01-29T09:56:28.837Z,86.63
2023-01-29T09:59:01.663Z,86.73
2023-01-29T10:01:42.877Z,86.79
2023-01-29T10:04:50.159Z,86.39
2023-01-29T10:07:42.902Z,86.38
2023-01-29T10:10:27.032Z,86.35
2023-01-29T10:13:12.132Z,86.23
2023-01-29T10:15:58.828Z,85.71
2023-01-29T10:18:50.313Z,85.72
2023-01-29T10:21:41.218Z,84.79
2023-01-29T10:24:25.070Z,84.50
2023-01-29T10:26:53.851Z,84.42
2023-01-29T10:29:23.771Z,84.44
2023-01-29T10:32:00.046Z,83.58
2023-01-29T10:34:37.641Z,83.58
2023-01-29T10:37:18.788Z,83.31
2023-01-29T10:39:47.127Z,83.36
2023-01-29T10:42:27.862Z,83.49
2023-01-29T10:45:22.450Z,82.71
2023-01-29T10:48:33.736Z,82.31
2023-01-29T10:51:18.472Z,81.49
2023-01-29T10:54:04.197Z,81.32
2023-01-29T10:56:52.605Z,80.93
2023-01-29T10:59:45.692Z,80.51
2023-01-29T11:02:19.643Z,80.61
2023-01-29T11:04:47.928Z,80.21
2023-01-29T11:07:21.061Z,80.26
2023-01-29T11:10:01.648Z,80.00
2023-01-29T11:12:33.654Z,80.09
2023-01-29T11:15:07.951Z,79.55
2023-01-29T11:17:37.419Z,79.16
2023-01-29T11:20:28.698Z,79.11
2023-01-29T11:22:56.797Z,78.49
2023-01-29T11:25:25.895Z,78.10
2023-01-29T11:27:57.577Z,78.28
2023-01-29T11:30:29.543Z,78.42
2023-01-29T11:33:20.774Z,78.26
2023-01-29T11:35:49.209Z,78.15
2023-01-29T11:38:24.764Z,77.70
2023-01-29T11:40:54.010Z,77.82
2023-01-29T11:43:31.886Z,77.91
2023-01-29T11:46:03.868Z,77.92
2023-01-29T11:48:44.364Z,77.79
2023-01-29T11:51:23.224Z,77.51
2023-01-29T11:53:55.706Z,77.91
2023-01-29T11:56:30.900Z,77.25
2023-01-29T11:59:02.196Z,77.08
2023-01-29T12:01:37.729Z,77.19
2023-01-29T12:04:22.181Z,77.13
2023-01-29T12:06:55.144Z,76.34
2023-01-29T12:09:28.197Z,75.98
2023-01-29T12:11:56.683Z,76.21
2023-01-29T12:14:34.439Z,76.13
2023-01-29T12:17:13.665Z,75.99
2023-01-29T12:19:51.258Z,76.01
2023-01-29T12:22:28.562Z,75.98
2023-01-29T12:25:04.878Z,76.28
2023-01-29T12:27:45.909Z,76.10
2023-01-29T12:30:23.595Z,76.46
2023-01-29T12:33:11.854Z,76.58
2023-01-29T12:35:51.820Z,76.57
2023-01-29T12:38:22.055Z,76.78
2023-01-29T12:40:58.916Z,77.03
2023-01-29T12:43:43.352Z,77.06
2023-01-29T12:46:28.096Z,76.73
2023-01-29T12:49:02.584Z,76.89
2023-01-29T12:51:43.252Z,77.12
2023-01-29T12:54:19.393Z,77.30
2023-01-29T12:56:53.798Z,77.22
2023-01-29T12:59:31.447Z,77.58
2023-01-29T13:02:16.023Z,76.97
2023-01-29T13:04:50.754Z,77.22
2023-01-29T13:07:29.372Z,77.33
2023-01-29T13:10:09.306Z,77.01
2023-01-29T13:12:40.832Z,77.58
2023-01-29T13:15:24.486Z,77.45
2023-01-29T13:17:58.932Z,77.52
2023-01-29T13:20:32.105Z,77.64
2023-01-29T13:23:18.403Z,77.92
2023-01-29T13:25:46.729Z,77.43
2023-01-29T13:28:20.816Z,77.43
2023-01-29T13:31:13.673Z,77.45
2023-01-29T13:33:44.590Z,77.58
2023-01-29T13:36:29.125Z,77.74
2023-01-29T13:39:05.435Z,77.79
2023-01-29T13:41:37.707Z,78.32
2023-01-29T13:44:18.982Z,77.85
2023-01-29T13:46:56.064Z,78.23
2023-01-29T13:49:36.682Z,78.35
2023-01-29T13:52:31.749Z,78.58
2023-01-29T13:55:05.232Z,78.52
2023-01-29T13:57:56.179Z,79.16
2023-01-29T14:00:59.276Z,79.74
2023-01-29T14:04:06.032Z,80.04
2023-01-29T14:06:51.234Z,80.60
2023-01-29T14:10:14.514Z,81.64
2023-01-29T14:12:55.524Z,82.71
2023-01-29T14:15:35.124Z,83.24
2023-01-29T14:18:15.972Z,83.81
2023-01-29T14:20:59.501Z,84.23
2023-01-29T14:23:42.356Z,85.13
2023-01-29T14:26:30.064Z,85.52
2023-01-29T14:29:05.876Z,86.32
2023-01-29T14:31:43.257Z,86.10
2023-01-29T14:34:26.675Z,86.79
2023-01-29T14:36:58.569Z,86.59
2023-01-29T14:39:48.115Z,86.88
2023-01-29T14:42:23.361Z,87.36
2023-01-29T14:45:02.433Z,87.84
2023-01-29T14:48:01.136Z,88.10
2023-01-29T14:50:54.402Z,87.61
2023-01-29T14:53:32.356Z,87.82
2023-01-29T14:56:05.363Z,87.97
2023-01-29T14:58:43.405Z,88.47
2023-01-29T15:01:24.740Z,88.64
2023-01-29T15:03:59.591Z,89.10
2023-01-29T15:06:42.462Z,89.02
2023-01-29T15:09:18.368Z,89.21
2023-01-29T15:12:08.711Z,88.57
2023-01-29T15:14:44.463Z,89.02
2023-01-29T15:17:29.233Z,89.01
2023-01-29T15:19:58.119Z,88.62
2023-01-29T15:22:29.132Z,88.75
2023-01-29T15:25:07.890Z,88.28
2023-01-29T15:27:36.473Z,88.26
2023-01-29T15:30:09.112Z,87.99
2023-01-29T15:32:41.242Z,88.46
2023-01-29T15:35:18.745Z,88.22
2023-01-29T15:38:01.464Z,88.03
2023-01-29T15:40:29.610Z,87.90
2023-01-29T15:42:57.695Z,87.82
2023-01-29T15:45:31.272Z,87.33
2023-01-29T15:48:07.260Z,87.84
2023-01-29T15:50:52.490Z,88.39
2023-01-29T15:53:28.137Z,87.90
2023-01-29T15:55:59.996Z,88.21
2023-01-29T15:58:33.358Z,88.20
2023-01-29T16:01:03.044Z,88.29
2023-01-29T16:03:37.685Z,88.05
2023-01-29T16:06:10.075Z,87.92
2023-01-29T16:08:41.193Z,87.57
2023-01-29T16:11:11.112Z,87.60
2023-01-29T16:13:44.272Z,87.47
2023-01-29T16:16:24.536Z,87.98
2023-01-29T16:19:00.408Z,87.33
2023-01-29T16:21:35.118Z,87.34
2023-01-29T16:24:09.808Z,87.10
2023-01-29T16:26:44.910Z,86.87
2023-01-29T16:29:17.493Z,86.75
2023-01-29T16:31:49.688Z,86.54
2023-01-29T16:34:28.048Z,86.36
2023-01-29T16:36:58.614Z,86.41
2023-01-29T16:39:33.009Z,86.18
2023-01-29T16:42:31.899Z,86.46
2023-01-29T16:45:03.072Z,85.52
2023-01-29T16:47:36.192Z,85.79
2023-01-29T16:50:36.090Z,85.61
2023-01-29T16:53:19.852Z,85.19
2023-01-29T16:55:53.734Z,85.23
2023-01-29T16:58:30.793Z,84.84
2023-01-29T17:01:06.072Z,84.26
2023-01-29T17:03:37.174Z,84.54
2023-01-29T17:06:13.955Z,84.56
2023-01-29T17:08:44.490Z,83.83
2023-01-29T17:11:26.695Z,83.98
2023-01-29T17:13:58.059Z,83.70
2023-01-29T17:16:35.189Z,83.52
2023-01-29T17:19:16.558Z,83.49
2023-01-29T17:21:46.493Z,83.13
2023-01-29T17:24:14.727Z,82.83
2023-01-29T17:26:43.637Z,82.76
2023-01-29T17:29:18.619Z,82.96
2023-01-29T17:31:47.170Z,82.88
2023-01-29T17:34:18.741Z,82.84
2023-01-29T17:45:46.535Z,82.97
2023-01-29T17:48:23.256Z,83.20
2023-01-29T17:50:54.085Z,83.32
2023-01-29T17:53:24.824Z,83.38
2023-01-29T17:55:54.656Z,82.90
2023-01-29T17:58:26.716Z,83.02
2023-01-29T18:01:00.319Z,83.36
2023-01-29T18:03:28.397Z,83.17
2023-01-29T18:05:56.436Z,83.29
2023-01-29T18:08:32.635Z,83.40
2023-01-29T18:11:01.398Z,83.36
2023-01-29T18:13:31.039Z,83.53
2023-01-29T18:15:59.141Z,83.96
2023-01-29T18:18:27.328Z,83.47
2023-01-29T18:20:55.451Z,83.85
2023-01-29T18:23:23.455Z,83.58
2023-01-29T18:25:52.756Z,83.84
2023-01-29T18:28:20.782Z,83.91
2023-01-29T18:30:50.424Z,83.50
2023-01-29T18:33:19.057Z,83.72
2023-01-29T18:35:49.043Z,83.55
2023-01-29T18:38:17.963Z,83.95
2023-01-29T18:40:46.159Z,83.56
2023-01-29T18:43:15.134Z,83.50
2023-01-29T18:45:44.158Z,83.29
2023-01-29T18:48:14.134Z,83.56
2023-01-29T18:50:42.144Z,83.39
2023-01-29T18:53:10.219Z,83.26
2023-01-29T18:55:38.447Z,83.13
2023-01-29T18:58:29.418Z,83.38
2023-01-29T19:00:57.649Z,83.16
2023-01-29T19:03:27.034Z,83.41
2023-01-29T19:05:55.034Z,83.11
2023-01-29T19:08:23.096Z,83.00
2023-01-29T19:10:51.268Z,83.33
2023-01-29T19:13:19.429Z,83.49
2023-01-29T19:15:48.174Z,83.75
2023-01-29T19:18:16.498Z,84.36
2023-01-29T19:20:45.802Z,84.57
2023-01-29T19:23:13.857Z,85.36
2023-01-29T19:25:42.290Z,84.81
2023-01-29T19:28:10.439Z,85.43
2023-01-29T19:30:38.626Z,85.02
2023-01-29T19:33:06.578Z,84.87
2023-01-29T19:35:34.643Z,84.13
2023-01-29T19:38:10.064Z,83.88
2023-01-29T19:40:38.671Z,83.47
2023-01-29T19:43:06.760Z,83.33
2023-01-29T19:45:49.441Z,83.09
2023-01-29T19:48:20.366Z,83.05
2023-01-29T19:50:53.399Z,82.40
2023-01-29T19:53:23.286Z,82.13
2023-01-29T19:55:59.879Z,82.14
2023-01-29T19:58:28.436Z,81.71
2023-01-29T20:00:58.128Z,81.79
2023-01-29T20:03:27.612Z,81.92
2023-01-29T20:05:55.956Z,82.04
2023-01-29T20:08:25.379Z,81.42
2023-01-29T20:10:53.327Z,82.00
2023-01-29T20:13:21.359Z,82.07
2023-01-29T20:15:51.733Z,82.01
2023-01-29T20:18:20.610Z,82.11
2023-01-29T20:20:50.735Z,82.37
2023-01-29T20:23:36.584Z,81.91
2023-01-29T20:26:08.200Z,81.74
2023-01-29T20:28:36.798Z,82.12
2023-01-29T20:31:06.779Z,81.74
2023-01-29T20:33:38.154Z,82.02
2023-01-29T20:36:11.074Z,81.75
2023-01-29T20:38:43.124Z,81.92
2023-01-29T20:41:18.810Z,82.08
2023-01-29T20:43:50.176Z,81.77
2023-01-29T20:46:19.294Z,81.88
2023-01-29T20:48:47.440Z,81.76
2023-01-29T20:51:18.128Z,82.11
2023-01-29T20:53:48.513Z,81.91
2023-01-29T20:56:18.897Z,81.75
2023-01-29T20:59:04.356Z,81.41
2023-01-29T21:01:32.356Z,81.53
2023-01-29T21:04:00.382Z,81.27
2023-01-29T21:06:29.451Z,81.44
2023-01-29T21:08:57.726Z,81.86
2023-01-29T21:11:28.661Z,81.32
2023-01-29T21:13:57.735Z,81.75
2023-01-29T21:16:26.953Z,81.29
2023-01-29T21:18:57.764Z,81.08
2023-01-29T21:21:26.622Z,80.82
2023-01-29T21:23:55.571Z,80.82
2023-01-29T21:26:24.208Z,80.70
2023-01-29T21:28:53.598Z,80.25
2023-01-29T21:31:21.694Z,80.80
2023-01-29T21:33:49.831Z,80.37
2023-01-29T21:36:17.981Z,80.39
2023-01-29T21:38:46.078Z,80.58
2023-01-29T21:41:14.443Z,80.50
2023-01-29T21:43:41.457Z,80.46
2023-01-29T21:46:12.464Z,80.37
2023-01-29T21:48:41.573Z,80.40
2023-01-29T21:51:09.920Z,80.15
2023-01-29T21:53:37.984Z,80.24
2023-01-29T21:56:07.462Z,80.08
2023-01-29T21:58:35.191Z,80.44
2023-01-29T22:01:35.301Z,80.83
2023-01-29T22:03:52.742Z,80.54
2023-01-29T22:06:20.779Z,80.85
2023-01-29T22:08:49.996Z,80.72
2023-01-29T22:11:18.544Z,80.55
2023-01-29T22:13:47.109Z,80.47
2023-01-29T22:16:15.051Z,80.63
2023-01-29T22:18:43.104Z,80.98
2023-01-29T22:21:12.384Z,80.79
2023-01-29T22:23:40.447Z,80.87
2023-01-29T22:26:09.880Z,80.50
2023-01-29T22:28:37.831Z,81.03
2023-01-29T22:31:06.807Z,80.71
2023-01-29T22:33:35.488Z,80.58
2023-01-29T22:36:04.482Z,80.52
2023-01-29T22:38:33.989Z,80.33
2023-01-29T22:41:04.640Z,80.09
2023-01-29T22:43:32.797Z,80.06
2023-01-29T22:46:00.825Z,80.21
2023-01-29T22:48:52.007Z,80.17
2023-01-29T22:51:20.002Z,79.92
2023-01-29T22:53:53.983Z,79.88
2023-01-29T22:56:25.278Z,79.44
2023-01-29T22:58:54.499Z,79.27
2023-01-29T23:01:25.085Z,79.19
2023-01-29T23:03:53.242Z,79.17
2023-01-29T23:06:22.156Z,79.20
2023-01-29T23:08:52.633Z,78.45
2023-01-29T23:11:23.535Z,78.70
2023-01-29T23:13:54.531Z,78.63
2023-01-29T23:16:27.689Z,78.41
2023-01-29T23:18:57.465Z,78.53
2023-01-29T23:21:27.590Z,78.38
2023-01-29T23:23:58.319Z,78.70
2023-01-29T23:26:44.212Z,77.99
2023-01-29T23:29:12.655Z,78.44
2023-01-29T23:31:41.250Z,77.86
2023-01-29T23:34:09.607Z,77.78
2023-01-29T23:36:38.085Z,78.08
2023-01-29T23:39:07.907Z,78.47
2023-01-29T23:41:35.961Z,78.07
2023-01-29T23:44:04.300Z,77.70
2023-01-29T23:46:32.756Z,77.59
2023-01-29T23:49:01.075Z,77.83
2023-01-29T23:51:29.037Z,77.65
2023-01-29T23:53:57.457Z,77.42
2023-01-29T23:56:27.033Z,77.22
2023-01-29T23:58:55.695Z,77.38
